sensor_id;sensor_type;location;lat;lon;timestamp;pressure;altitude;pressure_sealevel;temperature;humidity
77626;BME280;66794;43.764;10.436;2023-02-26T00:00:43;99902.22;;;12.20;100.00
77626;BME280;66794;43.764;10.436;2023-02-26T00:03:08;99914.34;;;12.31;100.00
77626;BME280;66794;43.764;10.436;2023-02-26T00:05:34;99896.34;;;12.10;100.00
77626;BME280;66794;43.764;10.436;2023-02-26T00:07:59;99880.28;;;12.08;100.00
77626;BME280;66794;43.764;10.436;2023-02-26T00:10:24;99876.13;;;12.19;100.00
77626;BME280;66794;43.764;10.436;2023-02-26T00:12:50;99889.91;;;12.24;100.00
77626;BME280;66794;43.764;10.436;2023-02-26T00:15:16;99890.94;;;12.36;100.00
77626;BME280;66794;43.764;10.436;2023-02-26T00:20:26;99897.63;;;12.47;100.00
77626;BME280;66794;43.764;10.436;2023-02-26T00:22:52;99883.41;;;12.38;100.00
77626;BME280;66794;43.764;10.436;2023-02-26T00:25:17;99854.63;;;12.24;100.00
77626;BME280;66794;43.764;10.436;2023-02-26T00:27:43;99861.72;;;12.25;100.00
77626;BME280;66794;43.764;10.436;2023-02-26T00:30:09;99858.78;;;12.40;100.00
77626;BME280;66794;43.764;10.436;2023-02-26T00:32:36;99884.88;;;12.61;100.00
77626;BME280;66794;43.764;10.436;2023-02-26T00:35:05;99893.22;;;12.59;100.00
77626;BME280;66794;43.764;10.436;2023-02-26T00:37:34;99890.31;;;12.54;100.00
77626;BME280;66794;43.764;10.436;2023-02-26T00:42:55;99863.78;;;12.50;100.00
77626;BME280;66794;43.764;10.436;2023-02-26T00:45:20;99876.09;;;12.59;100.00
77626;BME280;66794;43.764;10.436;2023-02-26T00:55:08;99845.63;;;12.44;100.00
77626;BME280;66794;43.764;10.436;2023-02-26T00:57:34;99863.78;;;12.63;100.00
77626;BME280;66794;43.764;10.436;2023-02-26T00:59:59;99825.78;;;12.43;100.00
77626;BME280;66794;43.764;10.436;2023-02-26T01:02:25;99848.97;;;12.52;100.00
77626;BME280;66794;43.764;10.436;2023-02-26T01:04:51;99834.97;;;12.49;100.00
77626;BME280;66794;43.764;10.436;2023-02-26T01:07:20;99846.00;;;12.60;100.00
77626;BME280;66794;43.764;10.436;2023-02-26T01:09:47;99842.91;;;12.57;100.00
77626;BME280;66794;43.764;10.436;2023-02-26T01:12:13;99819.50;;;12.43;100.00
77626;BME280;66794;43.764;10.436;2023-02-26T01:14:39;99842.03;;;12.70;100.00
77626;BME280;66794;43.764;10.436;2023-02-26T01:19:52;99832.00;;;12.70;100.00
77626;BME280;66794;43.764;10.436;2023-02-26T01:24:58;99828.63;;;12.81;100.00
77626;BME280;66794;43.764;10.436;2023-02-26T01:27:25;99800.91;;;12.53;100.00
77626;BME280;66794;43.764;10.436;2023-02-26T01:29:51;99823.22;;;12.75;100.00
77626;BME280;66794;43.764;10.436;2023-02-26T01:35:23;99819.03;;;12.79;100.00
77626;BME280;66794;43.764;10.436;2023-02-26T01:43:38;99794.78;;;12.71;100.00
77626;BME280;66794;43.764;10.436;2023-02-26T01:46:29;99807.69;;;12.95;100.00
77626;BME280;66794;43.764;10.436;2023-02-26T01:48:57;99784.97;;;12.76;100.00
77626;BME280;66794;43.764;10.436;2023-02-26T01:51:53;99797.69;;;12.89;100.00
77626;BME280;66794;43.764;10.436;2023-02-26T01:54:24;99783.72;;;12.79;100.00
77626;BME280;66794;43.764;10.436;2023-02-26T01:56:58;99748.50;;;12.46;100.00
77626;BME280;66794;43.764;10.436;2023-02-26T01:59:25;99771.19;;;12.71;100.00
77626;BME280;66794;43.764;10.436;2023-02-26T02:01:56;99765.13;;;12.69;100.00
77626;BME280;66794;43.764;10.436;2023-02-26T02:04:22;99755.94;;;12.70;100.00
77626;BME280;66794;43.764;10.436;2023-02-26T02:06:49;99755.53;;;12.73;100.00
77626;BME280;66794;43.764;10.436;2023-02-26T02:09:14;99774.91;;;12.77;100.00
77626;BME280;66794;43.764;10.436;2023-02-26T02:15:10;99772.66;;;12.74;100.00
77626;BME280;66794;43.764;10.436;2023-02-26T02:17:50;99732.22;;;12.46;100.00
77626;BME280;66794;43.764;10.436;2023-02-26T02:29:30;99774.31;;;12.75;100.00
77626;BME280;66794;43.764;10.436;2023-02-26T02:32:07;99774.34;;;12.68;100.00
77626;BME280;66794;43.764;10.436;2023-02-26T02:34:44;99761.81;;;12.60;100.00
77626;BME280;66794;43.764;10.436;2023-02-26T02:37:21;99746.19;;;12.56;100.00
77626;BME280;66794;43.764;10.436;2023-02-26T02:40:14;99751.59;;;12.62;100.00
77626;BME280;66794;43.764;10.436;2023-02-26T02:42:46;99764.88;;;12.77;100.00
77626;BME280;66794;43.764;10.436;2023-02-26T02:45:19;99740.72;;;12.62;100.00
77626;BME280;66794;43.764;10.436;2023-02-26T02:47:51;99744.00;;;12.71;100.00
77626;BME280;66794;43.764;10.436;2023-02-26T02:50:25;99746.13;;;12.69;100.00
77626;BME280;66794;43.764;10.436;2023-02-26T02:52:57;99766.13;;;12.81;100.00
77626;BME280;66794;43.764;10.436;2023-02-26T02:55:29;99754.28;;;12.69;100.00
77626;BME280;66794;43.764;10.436;2023-02-26T02:58:03;99755.91;;;12.77;100.00
77626;BME280;66794;43.764;10.436;2023-02-26T03:00:33;99725.28;;;12.50;100.00
77626;BME280;66794;43.764;10.436;2023-02-26T03:03:30;99760.16;;;12.59;100.00
77626;BME280;66794;43.764;10.436;2023-02-26T03:05:58;99722.56;;;12.50;100.00
77626;BME280;66794;43.764;10.436;2023-02-26T03:08:27;99719.44;;;12.53;100.00
77626;BME280;66794;43.764;10.436;2023-02-26T03:10:54;99727.75;;;12.64;100.00
77626;BME280;66794;43.764;10.436;2023-02-26T03:13:22;99703.56;;;12.50;100.00
77626;BME280;66794;43.764;10.436;2023-02-26T03:24:28;99742.34;;;12.70;100.00
77626;BME280;66794;43.764;10.436;2023-02-26T03:32:28;99696.66;;;12.54;100.00
77626;BME280;66794;43.764;10.436;2023-02-26T03:35:13;99729.00;;;12.69;100.00
77626;BME280;66794;43.764;10.436;2023-02-26T03:37:49;99659.00;;;12.19;100.00
77626;BME280;66794;43.764;10.436;2023-02-26T03:40:26;99679.38;;;12.42;100.00
77626;BME280;66794;43.764;10.436;2023-02-26T03:43:00;99716.69;;;12.59;100.00
77626;BME280;66794;43.764;10.436;2023-02-26T03:45:33;99723.56;;;12.69;100.00
77626;BME280;66794;43.764;10.436;2023-02-26T03:48:00;99664.59;;;12.31;100.00
77626;BME280;66794;43.764;10.436;2023-02-26T03:50:40;99702.31;;;12.52;100.00
77626;BME280;66794;43.764;10.436;2023-02-26T03:53:10;99683.78;;;12.36;100.00
77626;BME280;66794;43.764;10.436;2023-02-26T03:56:00;99711.44;;;12.64;100.00
77626;BME280;66794;43.764;10.436;2023-02-26T03:58:28;99684.97;;;12.53;100.00
77626;BME280;66794;43.764;10.436;2023-02-26T04:00:59;99671.84;;;12.44;100.00
77626;BME280;66794;43.764;10.436;2023-02-26T04:05:54;99701.66;;;12.63;100.00
77626;BME280;66794;43.764;10.436;2023-02-26T04:08:21;99703.31;;;12.64;100.00
77626;BME280;66794;43.764;10.436;2023-02-26T04:10:52;99698.13;;;12.50;100.00
77626;BME280;66794;43.764;10.436;2023-02-26T04:13:19;99699.59;;;12.52;100.00
77626;BME280;66794;43.764;10.436;2023-02-26T04:15:44;99677.28;;;12.44;100.00
77626;BME280;66794;43.764;10.436;2023-02-26T04:18:09;99701.22;;;12.60;100.00
77626;BME280;66794;43.764;10.436;2023-02-26T04:20:35;99669.31;;;12.49;100.00
77626;BME280;66794;43.764;10.436;2023-02-26T04:23:01;99689.94;;;12.63;100.00
77626;BME280;66794;43.764;10.436;2023-02-26T04:25:26;99653.97;;;12.29;100.00
77626;BME280;66794;43.764;10.436;2023-02-26T04:27:52;99667.94;;;12.26;100.00
77626;BME280;66794;43.764;10.436;2023-02-26T04:30:17;99695.66;;;12.42;100.00
77626;BME280;66794;43.764;10.436;2023-02-26T04:32:43;99677.09;;;12.45;100.00
77626;BME280;66794;43.764;10.436;2023-02-26T04:35:08;99655.84;;;12.22;100.00
77626;BME280;66794;43.764;10.436;2023-02-26T04:37:34;99690.91;;;12.30;100.00
77626;BME280;66794;43.764;10.436;2023-02-26T04:39:59;99644.84;;;12.04;100.00
77626;BME280;66794;43.764;10.436;2023-02-26T04:42:24;99657.75;;;12.15;100.00
77626;BME280;66794;43.764;10.436;2023-02-26T04:44:50;99659.81;;;12.26;100.00
77626;BME280;66794;43.764;10.436;2023-02-26T04:47:15;99675.47;;;12.24;100.00
77626;BME280;66794;43.764;10.436;2023-02-26T04:49:41;99665.88;;;12.15;100.00
77626;BME280;66794;43.764;10.436;2023-02-26T04:52:06;99647.97;;;12.07;100.00
77626;BME280;66794;43.764;10.436;2023-02-26T04:54:32;99667.13;;;12.19;100.00
77626;BME280;66794;43.764;10.436;2023-02-26T04:56:57;99664.22;;;12.14;100.00
77626;BME280;66794;43.764;10.436;2023-02-26T04:59:23;99657.56;;;12.10;100.00
77626;BME280;66794;43.764;10.436;2023-02-26T05:01:48;99653.81;;;12.04;100.00
77626;BME280;66794;43.764;10.436;2023-02-26T05:04:13;99635.06;;;11.96;100.00
77626;BME280;66794;43.764;10.436;2023-02-26T05:06:39;99660.06;;;12.18;100.00
77626;BME280;66794;43.764;10.436;2023-02-26T05:09:05;99640.59;;;12.21;100.00
77626;BME280;66794;43.764;10.436;2023-02-26T05:11:30;99642.50;;;12.14;100.00
77626;BME280;66794;43.764;10.436;2023-02-26T05:13:55;99629.81;;;11.95;100.00
77626;BME280;66794;43.764;10.436;2023-02-26T05:16:21;99621.69;;;11.95;100.00
77626;BME280;66794;43.764;10.436;2023-02-26T05:18:46;99632.13;;;11.98;100.00
77626;BME280;66794;43.764;10.436;2023-02-26T05:21:12;99642.34;;;12.02;100.00
77626;BME280;66794;43.764;10.436;2023-02-26T05:23:37;99647.34;;;11.99;100.00
77626;BME280;66794;43.764;10.436;2023-02-26T05:26:03;99612.91;;;11.79;100.00
77626;BME280;66794;43.764;10.436;2023-02-26T05:28:29;99642.34;;;11.96;100.00
77626;BME280;66794;43.764;10.436;2023-02-26T05:30:56;99622.97;;;11.86;100.00
77626;BME280;66794;43.764;10.436;2023-02-26T05:33:21;99595.84;;;11.72;100.00
77626;BME280;66794;43.764;10.436;2023-02-26T05:35:47;99628.13;;;12.00;100.00
77626;BME280;66794;43.764;10.436;2023-02-26T05:38:13;99564.75;;;11.68;100.00
77626;BME280;66794;43.764;10.436;2023-02-26T05:40:38;99625.44;;;12.07;100.00
77626;BME280;66794;43.764;10.436;2023-02-26T05:43:04;99607.72;;;11.98;100.00
77626;BME280;66794;43.764;10.436;2023-02-26T05:45:29;99611.03;;;12.00;100.00
77626;BME280;66794;43.764;10.436;2023-02-26T05:47:55;99625.22;;;12.08;100.00
77626;BME280;66794;43.764;10.436;2023-02-26T05:50:20;99602.88;;;12.00;100.00
77626;BME280;66794;43.764;10.436;2023-02-26T05:52:46;99580.81;;;11.83;100.00
77626;BME280;66794;43.764;10.436;2023-02-26T05:55:11;99605.38;;;12.08;100.00
77626;BME280;66794;43.764;10.436;2023-02-26T05:57:37;99592.69;;;11.95;100.00
77626;BME280;66794;43.764;10.436;2023-02-26T06:00:05;99564.31;;;11.84;100.00
77626;BME280;66794;43.764;10.436;2023-02-26T06:02:30;99589.34;;;11.93;100.00
77626;BME280;66794;43.764;10.436;2023-02-26T06:04:56;99588.53;;;11.93;100.00
77626;BME280;66794;43.764;10.436;2023-02-26T06:07:22;99598.72;;;12.04;100.00
77626;BME280;66794;43.764;10.436;2023-02-26T06:09:48;99567.03;;;11.84;100.00
77626;BME280;66794;43.764;10.436;2023-02-26T06:12:14;99596.41;;;12.07;100.00
77626;BME280;66794;43.764;10.436;2023-02-26T06:14:39;99581.41;;;11.98;100.00
77626;BME280;66794;43.764;10.436;2023-02-26T06:17:05;99594.34;;;12.03;100.00
77626;BME280;66794;43.764;10.436;2023-02-26T06:19:31;99584.16;;;11.92;100.00
77626;BME280;66794;43.764;10.436;2023-02-26T06:21:56;99573.09;;;11.87;100.00
77626;BME280;66794;43.764;10.436;2023-02-26T06:24:22;99605.19;;;12.03;100.00
77626;BME280;66794;43.764;10.436;2023-02-26T06:26:47;99575.78;;;11.93;100.00
77626;BME280;66794;43.764;10.436;2023-02-26T06:29:13;99579.94;;;11.96;100.00
77626;BME280;66794;43.764;10.436;2023-02-26T06:31:38;99543.06;;;11.75;100.00
77626;BME280;66794;43.764;10.436;2023-02-26T06:34:04;99591.19;;;12.06;100.00
77626;BME280;66794;43.764;10.436;2023-02-26T06:36:29;99572.84;;;11.95;100.00
77626;BME280;66794;43.764;10.436;2023-02-26T06:38:55;99531.59;;;11.73;100.00
77626;BME280;66794;43.764;10.436;2023-02-26T06:41:20;99600.16;;;12.06;100.00
77626;BME280;66794;43.764;10.436;2023-02-26T06:43:46;99609.75;;;12.09;100.00
77626;BME280;66794;43.764;10.436;2023-02-26T06:46:11;99579.31;;;12.00;100.00
77626;BME280;66794;43.764;10.436;2023-02-26T06:48:37;99595.09;;;12.17;100.00
77626;BME280;66794;43.764;10.436;2023-02-26T06:51:02;99586.38;;;12.01;100.00
77626;BME280;66794;43.764;10.436;2023-02-26T06:53:28;99589.09;;;12.01;100.00
77626;BME280;66794;43.764;10.436;2023-02-26T06:55:53;99583.25;;;12.04;100.00
77626;BME280;66794;43.764;10.436;2023-02-26T06:58:19;99581.81;;;11.95;100.00
77626;BME280;66794;43.764;10.436;2023-02-26T07:00:45;99587.66;;;11.99;100.00
77626;BME280;66794;43.764;10.436;2023-02-26T07:03:13;99581.81;;;11.95;100.00
77626;BME280;66794;43.764;10.436;2023-02-26T07:05:40;99600.16;;;12.06;100.00
77626;BME280;66794;43.764;10.436;2023-02-26T07:08:06;99531.59;;;11.66;100.00
77626;BME280;66794;43.764;10.436;2023-02-26T07:10:32;99592.03;;;12.00;100.00
77626;BME280;66794;43.764;10.436;2023-02-26T07:12:58;99611.84;;;12.14;100.00
77626;BME280;66794;43.764;10.436;2023-02-26T07:15:24;99616.44;;;12.13;100.00
77626;BME280;66794;43.764;10.436;2023-02-26T07:17:50;99601.22;;;11.99;100.00
77626;BME280;66794;43.764;10.436;2023-02-26T07:20:15;99578.53;;;11.80;100.00
77626;BME280;66794;43.764;10.436;2023-02-26T07:22:43;99615.00;;;11.97;100.00
77626;BME280;66794;43.764;10.436;2023-02-26T07:25:09;99623.97;;;12.04;100.00
77626;BME280;66794;43.764;10.436;2023-02-26T07:27:34;99607.25;;;12.01;100.00
77626;BME280;66794;43.764;10.436;2023-02-26T07:30:01;99626.66;;;12.11;100.00
77626;BME280;66794;43.764;10.436;2023-02-26T07:32:27;99592.28;;;11.85;100.00
77626;BME280;66794;43.764;10.436;2023-02-26T07:34:52;99608.75;;;11.97;100.00
77626;BME280;66794;43.764;10.436;2023-02-26T07:37:17;99627.94;;;12.02;100.00
77626;BME280;66794;43.764;10.436;2023-02-26T07:39:43;99586.47;;;11.75;100.00
77626;BME280;66794;43.764;10.436;2023-02-26T07:42:09;99596.03;;;11.77;100.00
77626;BME280;66794;43.764;10.436;2023-02-26T07:44:34;99616.28;;;11.88;100.00
77626;BME280;66794;43.764;10.436;2023-02-26T07:47:00;99612.53;;;11.82;100.00
77626;BME280;66794;43.764;10.436;2023-02-26T07:49:25;99589.38;;;11.67;100.00
77626;BME280;66794;43.764;10.436;2023-02-26T07:51:51;99622.34;;;11.83;100.00
77626;BME280;66794;43.764;10.436;2023-02-26T07:54:16;99619.19;;;10.74;100.00
77626;BME280;66794;43.764;10.436;2023-02-26T07:56:42;99595.63;;;10.07;100.00
77626;BME280;66794;43.764;10.436;2023-02-26T07:59:08;99603.00;;;9.85;100.00
77626;BME280;66794;43.764;10.436;2023-02-26T08:01:34;99591.09;;;9.44;100.00
77626;BME280;66794;43.764;10.436;2023-02-26T08:04:00;99598.84;;;9.26;100.00
77626;BME280;66794;43.764;10.436;2023-02-26T08:06:26;99609.66;;;9.26;100.00
77626;BME280;66794;43.764;10.436;2023-02-26T08:08:51;99600.34;;;9.07;100.00
77626;BME280;66794;43.764;10.436;2023-02-26T08:11:17;99630.50;;;9.32;100.00
77626;BME280;66794;43.764;10.436;2023-02-26T08:13:42;99639.00;;;9.57;100.00
77626;BME280;66794;43.764;10.436;2023-02-26T08:16:08;99621.16;;;9.63;100.00
77626;BME280;66794;43.764;10.436;2023-02-26T08:18:33;99628.06;;;9.72;100.00
77626;BME280;66794;43.764;10.436;2023-02-26T08:20:59;99564.56;;;9.27;100.00
77626;BME280;66794;43.764;10.436;2023-02-26T08:23:24;99592.50;;;9.40;100.00
77626;BME280;66794;43.764;10.436;2023-02-26T08:25:59;99626.91;;;9.53;100.00
77626;BME280;66794;43.764;10.436;2023-02-26T08:28:24;99641.84;;;9.49;100.00
77626;BME280;66794;43.764;10.436;2023-02-26T08:30:53;99549.97;;;8.93;99.99
77626;BME280;66794;43.764;10.436;2023-02-26T08:33:18;99645.47;;;9.35;99.20
77626;BME280;66794;43.764;10.436;2023-02-26T08:35:44;99603.81;;;9.22;97.11
77626;BME280;66794;43.764;10.436;2023-02-26T08:38:09;99610.78;;;9.10;97.02
77626;BME280;66794;43.764;10.436;2023-02-26T08:40:35;99629.78;;;9.02;97.35
77626;BME280;66794;43.764;10.436;2023-02-26T08:43:01;99602.56;;;8.76;97.36
77626;BME280;66794;43.764;10.436;2023-02-26T08:45:28;99627.56;;;8.84;94.60
77626;BME280;66794;43.764;10.436;2023-02-26T08:47:54;99653.41;;;8.72;98.05
77626;BME280;66794;43.764;10.436;2023-02-26T08:50:20;99575.41;;;8.26;95.77
77626;BME280;66794;43.764;10.436;2023-02-26T08:52:45;99653.44;;;8.57;97.68
77626;BME280;66794;43.764;10.436;2023-02-26T08:55:11;99647.50;;;8.47;97.42
77626;BME280;66794;43.764;10.436;2023-02-26T08:57:36;99647.97;;;8.36;96.65
77626;BME280;66794;43.764;10.436;2023-02-26T09:00:03;99650.50;;;8.23;96.03
77626;BME280;66794;43.764;10.436;2023-02-26T09:02:29;99624.00;;;8.11;95.77
77626;BME280;66794;43.764;10.436;2023-02-26T09:04:54;99637.66;;;8.10;93.60
77626;BME280;66794;43.764;10.436;2023-02-26T09:07:20;99608.75;;;8.04;94.80
77626;BME280;66794;43.764;10.436;2023-02-26T09:09:45;99623.38;;;7.95;93.24
77626;BME280;66794;43.764;10.436;2023-02-26T09:12:11;99671.88;;;8.09;92.54
77626;BME280;66794;43.764;10.436;2023-02-26T09:14:36;99666.69;;;8.08;93.71
77626;BME280;66794;43.764;10.436;2023-02-26T09:17:02;99629.03;;;8.00;92.38
77626;BME280;66794;43.764;10.436;2023-02-26T09:19:27;99658.88;;;7.98;92.64
77626;BME280;66794;43.764;10.436;2023-02-26T09:21:53;99666.41;;;8.03;91.32
77626;BME280;66794;43.764;10.436;2023-02-26T09:24:18;99657.75;;;7.93;91.99
77626;BME280;66794;43.764;10.436;2023-02-26T09:26:44;99680.56;;;8.05;89.70
77626;BME280;66794;43.764;10.436;2023-02-26T09:29:09;99600.22;;;7.85;87.54
77626;BME280;66794;43.764;10.436;2023-02-26T09:31:35;99645.78;;;7.95;88.72
77626;BME280;66794;43.764;10.436;2023-02-26T09:34:01;99668.00;;;8.12;86.70
77626;BME280;66794;43.764;10.436;2023-02-26T09:36:26;99679.13;;;8.09;88.07
77626;BME280;66794;43.764;10.436;2023-02-26T09:38:52;99653.59;;;8.05;87.56
77626;BME280;66794;43.764;10.436;2023-02-26T09:41:29;99665.56;;;8.02;88.22
77626;BME280;66794;43.764;10.436;2023-02-26T09:52:12;99652.28;;;7.86;86.05
77626;BME280;66794;43.764;10.436;2023-02-26T09:54:46;99626.16;;;7.72;90.20
77626;BME280;66794;43.764;10.436;2023-02-26T09:57:30;99618.53;;;7.75;86.14
77626;BME280;66794;43.764;10.436;2023-02-26T09:59:56;99664.94;;;8.00;87.38
77626;BME280;66794;43.764;10.436;2023-02-26T10:07:53;99658.59;;;7.93;86.26
77626;BME280;66794;43.764;10.436;2023-02-26T10:10:37;99671.44;;;7.91;86.68
77626;BME280;66794;43.764;10.436;2023-02-26T10:13:18;99621.78;;;7.56;87.73
77626;BME280;66794;43.764;10.436;2023-02-26T10:15:47;99654.69;;;7.81;89.66
77626;BME280;66794;43.764;10.436;2023-02-26T10:18:23;99665.00;;;7.92;87.49
77626;BME280;66794;43.764;10.436;2023-02-26T10:21:06;99684.91;;;7.91;88.70
77626;BME280;66794;43.764;10.436;2023-02-26T10:26:29;99658.75;;;7.77;90.87
77626;BME280;66794;43.764;10.436;2023-02-26T10:28:58;99627.19;;;7.56;92.65
77626;BME280;66794;43.764;10.436;2023-02-26T10:31:54;99678.31;;;7.79;88.03
77626;BME280;66794;43.764;10.436;2023-02-26T10:34:39;99659.25;;;7.80;90.01
77626;BME280;66794;43.764;10.436;2023-02-26T10:40:18;99644.66;;;7.75;90.93
77626;BME280;66794;43.764;10.436;2023-02-26T10:42:54;99649.94;;;7.68;90.85
77626;BME280;66794;43.764;10.436;2023-02-26T10:48:20;99626.50;;;7.54;91.32
77626;BME280;66794;43.764;10.436;2023-02-26T10:50:56;99673.66;;;7.73;89.21
77626;BME280;66794;43.764;10.436;2023-02-26T10:53:23;99669.00;;;7.67;87.84
77626;BME280;66794;43.764;10.436;2023-02-26T10:58:31;99631.88;;;7.39;87.45
77626;BME280;66794;43.764;10.436;2023-02-26T11:00:57;99662.91;;;7.35;88.29
77626;BME280;66794;43.764;10.436;2023-02-26T11:03:31;99655.06;;;7.25;88.55
77626;BME280;66794;43.764;10.436;2023-02-26T11:05:57;99665.88;;;7.40;84.61
77626;BME280;66794;43.764;10.436;2023-02-26T11:08:25;99671.09;;;7.42;88.10
77626;BME280;66794;43.764;10.436;2023-02-26T11:10:52;99701.44;;;7.35;85.69
77626;BME280;66794;43.764;10.436;2023-02-26T11:13:20;99680.63;;;7.29;84.77
77626;BME280;66794;43.764;10.436;2023-02-26T11:15:50;99671.56;;;7.22;86.72
77626;BME280;66794;43.764;10.436;2023-02-26T11:18:20;99698.38;;;7.16;87.06
77626;BME280;66794;43.764;10.436;2023-02-26T11:20:48;99645.31;;;6.78;87.42
77626;BME280;66794;43.764;10.436;2023-02-26T11:23:19;99696.84;;;6.98;86.96
77626;BME280;66794;43.764;10.436;2023-02-26T11:25:52;99680.03;;;6.96;88.24
77626;BME280;66794;43.764;10.436;2023-02-26T11:28:28;99676.31;;;6.74;90.34
77626;BME280;66794;43.764;10.436;2023-02-26T11:30:54;99696.84;;;6.67;90.39
77626;BME280;66794;43.764;10.436;2023-02-26T11:35:48;99719.53;;;6.73;90.19
77626;BME280;66794;43.764;10.436;2023-02-26T11:38:20;99672.78;;;6.43;88.26
77626;BME280;66794;43.764;10.436;2023-02-26T11:40:50;99708.00;;;6.56;89.56
77626;BME280;66794;43.764;10.436;2023-02-26T11:43:19;99678.31;;;6.41;91.62
77626;BME280;66794;43.764;10.436;2023-02-26T11:45:56;99691.84;;;6.25;92.52
77626;BME280;66794;43.764;10.436;2023-02-26T11:48:24;99679.63;;;6.14;91.21
77626;BME280;66794;43.764;10.436;2023-02-26T11:50:55;99686.38;;;6.10;92.49
77626;BME280;66794;43.764;10.436;2023-02-26T11:53:57;99692.03;;;6.23;93.12
77626;BME280;66794;43.764;10.436;2023-02-26T11:58:51;99722.28;;;6.17;93.62
77626;BME280;66794;43.764;10.436;2023-02-26T12:01:26;99719.97;;;6.06;92.23
77626;BME280;66794;43.764;10.436;2023-02-26T12:03:51;99727.22;;;5.81;95.56
77626;BME280;66794;43.764;10.436;2023-02-26T12:06:20;99751.25;;;5.66;96.38
77626;BME280;66794;43.764;10.436;2023-02-26T12:08:46;99691.69;;;5.54;96.33
77626;BME280;66794;43.764;10.436;2023-02-26T12:27:41;99730.06;;;4.90;100.00
77626;BME280;66794;43.764;10.436;2023-02-26T12:38:29;99772.75;;;4.67;100.00
77626;BME280;66794;43.764;10.436;2023-02-26T12:47:00;99742.88;;;4.54;100.00
77626;BME280;66794;43.764;10.436;2023-02-26T13:05:40;99773.19;;;4.46;100.00
77626;BME280;66794;43.764;10.436;2023-02-26T13:08:10;99765.91;;;4.38;100.00
77626;BME280;66794;43.764;10.436;2023-02-26T13:13:29;99789.88;;;4.40;100.00
77626;BME280;66794;43.764;10.436;2023-02-26T13:22:20;99774.25;;;4.27;100.00
77626;BME280;66794;43.764;10.436;2023-02-26T13:25:04;99774.72;;;4.22;100.00
77626;BME280;66794;43.764;10.436;2023-02-26T13:27:37;99796.34;;;4.29;100.00
77626;BME280;66794;43.764;10.436;2023-02-26T13:32:38;99807.41;;;4.26;100.00
77626;BME280;66794;43.764;10.436;2023-02-26T13:37:55;99725.53;;;3.98;100.00
77626;BME280;66794;43.764;10.436;2023-02-26T13:43:39;99801.69;;;4.21;100.00
77626;BME280;66794;43.764;10.436;2023-02-26T13:48:45;99766.84;;;3.95;100.00
77626;BME280;66794;43.764;10.436;2023-02-26T13:51:28;99836.97;;;4.16;100.00
77626;BME280;66794;43.764;10.436;2023-02-26T13:54:43;99850.28;;;4.26;100.00
77626;BME280;66794;43.764;10.436;2023-02-26T13:59:57;99809.22;;;3.91;100.00
77626;BME280;66794;43.764;10.436;2023-02-26T14:02:57;99832.63;;;4.15;100.00
77626;BME280;66794;43.764;10.436;2023-02-26T14:10:31;99807.13;;;3.85;100.00
77626;BME280;66794;43.764;10.436;2023-02-26T14:13:21;99860.94;;;4.18;100.00
77626;BME280;66794;43.764;10.436;2023-02-26T14:24:38;99824.75;;;3.88;100.00
77626;BME280;66794;43.764;10.436;2023-02-26T14:29:58;99852.34;;;3.88;100.00
77626;BME280;66794;43.764;10.436;2023-02-26T14:35:21;99899.44;;;4.17;100.00
77626;BME280;66794;43.764;10.436;2023-02-26T14:38:02;99853.75;;;3.92;100.00
77626;BME280;66794;43.764;10.436;2023-02-26T14:40:34;99862.00;;;4.25;100.00
77626;BME280;66794;43.764;10.436;2023-02-26T14:43:04;99873.97;;;4.13;100.00
77626;BME280;66794;43.764;10.436;2023-02-26T14:45:35;99895.50;;;4.29;100.00
77626;BME280;66794;43.764;10.436;2023-02-26T14:48:06;99921.19;;;4.32;100.00
77626;BME280;66794;43.764;10.436;2023-02-26T15:06:52;99934.38;;;3.89;100.00
77626;BME280;66794;43.764;10.436;2023-02-26T15:12:27;99938.28;;;3.77;100.00
77626;BME280;66794;43.764;10.436;2023-02-26T15:23:08;99961.22;;;3.62;100.00
77626;BME280;66794;43.764;10.436;2023-02-26T15:25:39;99945.16;;;3.62;100.00
77626;BME280;66794;43.764;10.436;2023-02-26T15:28:08;99931.22;;;3.58;100.00
77626;BME280;66794;43.764;10.436;2023-02-26T15:30:35;99984.72;;;3.86;100.00
77626;BME280;66794;43.764;10.436;2023-02-26T15:33:10;99960.09;;;3.64;100.00
77626;BME280;66794;43.764;10.436;2023-02-26T15:35:36;99961.06;;;3.63;100.00
77626;BME280;66794;43.764;10.436;2023-02-26T15:38:02;99968.56;;;3.60;100.00
77626;BME280;66794;43.764;10.436;2023-02-26T15:40:32;99992.47;;;3.89;100.00
77626;BME280;66794;43.764;10.436;2023-02-26T15:42:59;99950.47;;;3.72;100.00
77626;BME280;66794;43.764;10.436;2023-02-26T15:45:37;99933.63;;;3.61;100.00
77626;BME280;66794;43.764;10.436;2023-02-26T15:48:14;99978.63;;;3.76;100.00
77626;BME280;66794;43.764;10.436;2023-02-26T15:50:43;100004.91;;;4.08;100.00
77626;BME280;66794;43.764;10.436;2023-02-26T15:53:18;100034.03;;;4.11;100.00
77626;BME280;66794;43.764;10.436;2023-02-26T15:55:49;100024.94;;;4.04;100.00
77626;BME280;66794;43.764;10.436;2023-02-26T15:58:20;100057.47;;;4.09;100.00
77626;BME280;66794;43.764;10.436;2023-02-26T16:00:52;100052.41;;;4.06;100.00
77626;BME280;66794;43.764;10.436;2023-02-26T16:03:25;100032.19;;;3.93;100.00
77626;BME280;66794;43.764;10.436;2023-02-26T16:05:53;99992.66;;;3.60;100.00
77626;BME280;66794;43.764;10.436;2023-02-26T16:08:19;99998.59;;;3.81;100.00
77626;BME280;66794;43.764;10.436;2023-02-26T16:10:44;100028.91;;;4.00;100.00
77626;BME280;66794;43.764;10.436;2023-02-26T16:13:14;99976.34;;;3.53;100.00
77626;BME280;66794;43.764;10.436;2023-02-26T16:15:42;100021.72;;;4.00;100.00
77626;BME280;66794;43.764;10.436;2023-02-26T16:18:12;100045.09;;;4.08;100.00
77626;BME280;66794;43.764;10.436;2023-02-26T16:20:42;100041.53;;;4.07;100.00